createdAt,value
2023-02-26T00:01:19.405Z,3.00
2023-02-26T00:04:08.717Z,3.10
2023-02-26T00:06:58.606Z,4.20
2023-02-26T00:09:48.110Z,3.60
2023-02-26T00:12:37.588Z,3.37
2023-02-26T00:15:26.923Z,4.37
2023-02-26T00:18:17.465Z,3.10
2023-02-26T00:21:06.812Z,3.83
2023-02-26T00:23:55.369Z,3.70
2023-02-26T00:26:43.871Z,4.20
2023-02-26T00:29:32.812Z,3.80
2023-02-26T00:32:21.801Z,4.00
2023-02-26T00:35:14.869Z,4.47
2023-02-26T00:38:05.685Z,4.10
2023-02-26T00:40:55.611Z,4.07
2023-02-26T00:43:44.618Z,4.40
2023-02-26T00:46:40.601Z,4.30
2023-02-26T00:49:36.870Z,4.00
2023-02-26T00:52:32.552Z,3.87
2023-02-26T00:55:21.107Z,4.60
2023-02-26T00:58:09.690Z,3.83
2023-02-26T01:00:58.184Z,4.20
2023-02-26T01:03:47.172Z,4.00
2023-02-26T01:06:36.932Z,4.47
2023-02-26T01:09:28.242Z,4.47
2023-02-26T01:12:17.869Z,4.20
2023-02-26T01:15:08.285Z,4.93
2023-02-26T01:18:02.559Z,4.03
2023-02-26T01:20:55.737Z,5.27
2023-02-26T01:23:47.699Z,4.80
2023-02-26T01:26:37.835Z,3.97
2023-02-26T01:29:26.765Z,4.27
2023-02-26T01:32:18.734Z,4.53
2023-02-26T01:35:14.709Z,4.47
2023-02-26T01:38:05.956Z,4.80
2023-02-26T01:41:10.018Z,4.07
2023-02-26T01:44:04.628Z,4.47
2023-02-26T01:47:06.210Z,4.83
2023-02-26T01:49:55.203Z,4.50
2023-02-26T01:53:17.933Z,4.77
2023-02-26T01:56:13.886Z,4.67
2023-02-26T01:59:06.030Z,4.83
2023-02-26T02:01:58.045Z,4.60
2023-02-26T02:04:48.229Z,5.47
2023-02-26T02:07:36.717Z,5.10
2023-02-26T02:10:25.222Z,4.53
2023-02-26T02:13:26.873Z,4.93
2023-02-26T02:16:24.172Z,4.70
2023-02-26T02:19:33.172Z,4.57
2023-02-26T02:22:37.243Z,4.57
2023-02-26T02:25:41.596Z,5.03
2023-02-26T02:28:38.660Z,4.47
2023-02-26T02:31:30.953Z,5.00
2023-02-26T02:34:23.384Z,6.20
2023-02-26T02:37:17.364Z,5.00
2023-02-26T02:40:09.028Z,4.97
2023-02-26T02:43:00.753Z,4.60
2023-02-26T02:45:51.754Z,3.97
2023-02-26T02:48:45.098Z,5.20
2023-02-26T02:51:35.508Z,4.10
2023-02-26T02:54:27.536Z,4.57
2023-02-26T02:57:19.468Z,5.07
2023-02-26T03:00:11.357Z,5.37
2023-02-26T03:03:03.808Z,3.60
2023-02-26T03:05:53.650Z,4.40
2023-02-26T03:08:43.250Z,4.57
2023-02-26T03:11:32.180Z,4.80
2023-02-26T03:14:20.826Z,4.40
2023-02-26T03:17:19.267Z,4.43
2023-02-26T03:20:18.354Z,4.50
2023-02-26T03:23:12.845Z,5.13
2023-02-26T03:26:06.385Z,5.53
2023-02-26T03:28:57.350Z,5.97
2023-02-26T03:31:56.148Z,6.40
2023-02-26T03:34:48.072Z,5.60
2023-02-26T03:37:40.581Z,6.20
2023-02-26T03:40:33.523Z,6.10
2023-02-26T03:43:26.184Z,6.20
2023-02-26T03:46:16.808Z,6.60
2023-02-26T03:49:08.347Z,6.50
2023-02-26T03:51:58.325Z,7.07
2023-02-26T03:54:49.824Z,6.30
2023-02-26T03:57:39.882Z,7.27
2023-02-26T04:00:28.779Z,6.53
2023-02-26T04:03:22.169Z,7.10
2023-02-26T04:06:10.619Z,6.90
2023-02-26T04:08:59.105Z,7.63
2023-02-26T04:11:48.310Z,7.10
2023-02-26T04:14:38.521Z,6.80
2023-02-26T04:17:27.065Z,6.87
2023-02-26T04:20:15.793Z,6.47
2023-02-26T04:23:04.233Z,6.93
2023-02-26T04:25:52.920Z,7.17
2023-02-26T04:28:41.766Z,6.37
2023-02-26T04:31:31.786Z,7.27
2023-02-26T04:34:20.458Z,6.40
2023-02-26T04:37:09.001Z,7.10
2023-02-26T04:39:57.477Z,6.10
2023-02-26T04:42:47.489Z,6.33
2023-02-26T04:45:36.081Z,5.80
2023-02-26T04:48:26.316Z,6.60
2023-02-26T04:51:15.614Z,6.60
2023-02-26T04:54:04.169Z,5.90
2023-02-26T04:56:52.610Z,5.40
2023-02-26T04:59:41.115Z,5.63
2023-02-26T05:02:29.582Z,5.40
2023-02-26T05:05:19.463Z,6.00
2023-02-26T05:08:07.971Z,6.07
2023-02-26T05:10:56.475Z,6.20
2023-02-26T05:13:44.953Z,5.20
2023-02-26T05:16:33.550Z,6.80
2023-02-26T05:19:22.309Z,5.93
2023-02-26T05:22:12.376Z,6.00
2023-02-26T05:25:00.844Z,5.70
2023-02-26T05:27:49.972Z,6.20
2023-02-26T05:30:38.529Z,5.53
2023-02-26T05:33:27.296Z,5.70
2023-02-26T05:36:16.096Z,5.80
2023-02-26T05:39:05.996Z,5.67
2023-02-26T05:41:55.456Z,5.30
2023-02-26T05:44:43.942Z,6.13
2023-02-26T05:47:32.564Z,4.50
2023-02-26T05:50:21.246Z,5.23
2023-02-26T05:53:09.851Z,5.50
2023-02-26T05:55:59.845Z,5.17
2023-02-26T05:58:48.364Z,5.47
2023-02-26T06:01:38.216Z,5.20
2023-02-26T06:04:26.758Z,6.17
2023-02-26T06:07:15.331Z,6.87
2023-02-26T06:10:03.971Z,5.63
2023-02-26T06:12:53.780Z,5.60
2023-02-26T06:15:42.299Z,6.03
2023-02-26T06:18:32.213Z,5.93
2023-02-26T06:21:20.724Z,5.80
2023-02-26T06:24:09.455Z,6.00
2023-02-26T06:26:57.939Z,5.80
2023-02-26T06:29:47.908Z,5.70
2023-02-26T06:32:36.498Z,6.80
2023-02-26T06:35:25.083Z,6.17
2023-02-26T06:38:13.849Z,6.90
2023-02-26T06:41:02.381Z,5.93
2023-02-26T06:43:50.840Z,7.13
2023-02-26T06:46:40.677Z,6.57
2023-02-26T06:49:29.137Z,7.60
2023-02-26T06:52:17.595Z,6.73
2023-02-26T06:55:06.783Z,7.00
2023-02-26T06:57:55.489Z,7.27
2023-02-26T07:00:44.000Z,7.30
2023-02-26T07:03:33.898Z,8.37
2023-02-26T07:06:27.679Z,8.00
2023-02-26T07:09:16.757Z,7.93
2023-02-26T07:12:07.254Z,8.00
2023-02-26T07:14:55.772Z,8.00
2023-02-26T07:17:44.559Z,9.30
2023-02-26T07:20:34.356Z,7.73
2023-02-26T07:23:22.881Z,9.23
2023-02-26T07:26:11.474Z,7.90
2023-02-26T07:29:00.038Z,7.60
2023-02-26T07:31:48.702Z,8.83
2023-02-26T07:34:37.311Z,8.33
2023-02-26T07:37:27.406Z,8.83
2023-02-26T07:40:16.232Z,7.07
2023-02-26T07:43:04.760Z,7.70
2023-02-26T07:45:54.672Z,7.90
2023-02-26T07:48:43.570Z,8.20
2023-02-26T07:51:32.651Z,7.47
2023-02-26T07:54:22.472Z,6.53
2023-02-26T07:57:10.910Z,7.27
2023-02-26T07:59:59.385Z,7.33
2023-02-26T08:02:47.834Z,5.50
2023-02-26T08:05:36.290Z,5.67
2023-02-26T08:08:24.794Z,6.00
2023-02-26T08:11:14.695Z,5.50
2023-02-26T08:14:03.352Z,4.50
2023-02-26T08:16:53.152Z,5.00
2023-02-26T08:19:41.642Z,4.90
2023-02-26T08:22:30.176Z,4.27
2023-02-26T08:25:18.989Z,4.40
2023-02-26T08:28:08.867Z,4.43
2023-02-26T08:30:57.593Z,5.53
2023-02-26T08:33:46.429Z,5.07
2023-02-26T08:36:34.906Z,5.27
2023-02-26T08:39:23.391Z,4.53
2023-02-26T08:42:16.508Z,4.37
2023-02-26T08:45:07.605Z,4.30
2023-02-26T08:47:57.426Z,4.17
2023-02-26T08:50:46.043Z,3.80
2023-02-26T08:53:34.515Z,4.27
2023-02-26T08:56:23.500Z,4.07
2023-02-26T08:59:13.422Z,4.03
2023-02-26T09:02:03.363Z,4.07
2023-02-26T09:04:51.901Z,4.10
2023-02-26T09:07:40.458Z,3.70
2023-02-26T09:10:29.322Z,4.23
2023-02-26T09:13:17.854Z,4.20
2023-02-26T09:16:07.440Z,3.90
2023-02-26T09:18:57.415Z,3.03
2023-02-26T09:21:45.898Z,3.50
2023-02-26T09:24:34.404Z,2.90
2023-02-26T09:27:23.098Z,3.23
2023-02-26T09:30:12.811Z,3.40
2023-02-26T09:33:01.273Z,3.10
2023-02-26T09:35:51.401Z,3.50
2023-02-26T09:38:39.976Z,3.33
2023-02-26T09:41:31.547Z,3.30
2023-02-26T09:44:22.119Z,3.63
2023-02-26T09:47:15.238Z,3.03
2023-02-26T09:50:09.828Z,3.43
2023-02-26T09:53:03.210Z,3.40
2023-02-26T09:55:53.789Z,2.90
2023-02-26T09:58:42.976Z,3.27
2023-02-26T10:01:36.004Z,4.60
2023-02-26T10:04:31.798Z,4.33
2023-02-26T10:07:29.248Z,3.20
2023-02-26T10:10:25.717Z,3.83
2023-02-26T10:13:25.918Z,3.80
2023-02-26T10:16:16.688Z,3.40
2023-02-26T10:19:07.545Z,3.13
2023-02-26T10:21:58.994Z,3.43
2023-02-26T10:24:50.589Z,3.40
2023-02-26T10:27:50.237Z,3.23
2023-02-26T10:30:42.759Z,3.20
2023-02-26T10:33:37.591Z,2.70
2023-02-26T10:36:29.135Z,3.50
2023-02-26T10:39:25.008Z,3.10
2023-02-26T10:42:15.085Z,3.80
2023-02-26T10:45:12.702Z,4.00
2023-02-26T10:48:09.949Z,2.70
2023-02-26T10:51:00.105Z,3.10
2023-02-26T10:53:52.799Z,2.93
2023-02-26T10:56:41.360Z,2.43
2023-02-26T10:59:29.917Z,3.20
2023-02-26T11:02:34.346Z,2.73
2023-02-26T11:05:25.873Z,2.80
2023-02-26T11:08:17.748Z,3.23
2023-02-26T11:11:06.867Z,2.77
2023-02-26T11:13:55.355Z,2.73
2023-02-26T11:16:47.900Z,3.17
2023-02-26T11:19:40.613Z,3.00
2023-02-26T11:22:33.601Z,2.50
2023-02-26T11:25:25.303Z,2.30
2023-02-26T11:28:22.179Z,3.00
2023-02-26T11:31:13.550Z,2.83
2023-02-26T11:34:04.862Z,2.63
2023-02-26T11:36:57.228Z,2.50
2023-02-26T11:39:45.876Z,2.50
2023-02-26T11:42:36.968Z,2.63
2023-02-26T11:45:25.941Z,2.00
2023-02-26T11:48:17.262Z,2.63
2023-02-26T11:51:06.973Z,2.73
2023-02-26T11:54:01.072Z,2.27
2023-02-26T11:56:49.750Z,2.87
2023-02-26T11:59:41.148Z,2.27
2023-02-26T12:02:34.907Z,2.63
2023-02-26T12:05:23.756Z,2.60
2023-02-26T12:08:19.908Z,2.83
2023-02-26T12:11:37.129Z,2.33
2023-02-26T12:14:34.979Z,2.47
2023-02-26T12:17:33.123Z,2.50
2023-02-26T12:20:25.413Z,2.80
2023-02-26T12:23:26.051Z,2.40
2023-02-26T12:26:28.209Z,2.10
2023-02-26T12:29:37.517Z,2.17
2023-02-26T12:32:47.517Z,2.53
2023-02-26T12:35:54.924Z,2.30
2023-02-26T12:38:49.310Z,2.00
2023-02-26T12:41:50.601Z,2.80
2023-02-26T12:44:56.279Z,2.60
2023-02-26T12:47:53.061Z,2.40
2023-02-26T12:50:50.754Z,2.73
2023-02-26T12:53:50.612Z,1.93
2023-02-26T12:57:15.604Z,2.20
2023-02-26T13:00:24.275Z,2.37
2023-02-26T13:04:02.267Z,1.80
2023-02-26T13:07:02.721Z,2.10
2023-02-26T13:10:00.191Z,2.40
2023-02-26T13:12:54.972Z,2.27
2023-02-26T13:16:01.145Z,2.20
2023-02-26T13:18:53.215Z,1.67
2023-02-26T13:21:46.320Z,2.07
2023-02-26T13:24:39.135Z,2.40
2023-02-26T13:27:30.041Z,1.90
2023-02-26T13:30:25.010Z,2.57
2023-02-26T13:33:18.814Z,2.00
2023-02-26T13:36:08.676Z,2.23
2023-02-26T13:39:11.312Z,2.47
2023-02-26T13:42:02.971Z,1.93
2023-02-26T13:44:59.400Z,2.50
2023-02-26T13:48:15.642Z,2.30
2023-02-26T13:51:09.783Z,2.43
2023-02-26T13:54:01.235Z,1.70
2023-02-26T13:56:56.013Z,2.20
2023-02-26T13:59:50.027Z,2.30
2023-02-26T14:02:50.273Z,2.13
2023-02-26T14:05:56.213Z,2.57
2023-02-26T14:08:47.344Z,2.43
2023-02-26T14:11:47.598Z,1.90
2023-02-26T14:14:38.328Z,1.97
2023-02-26T14:17:40.586Z,3.20
2023-02-26T14:20:30.086Z,1.80
2023-02-26T14:23:34.167Z,1.80
2023-02-26T14:26:23.164Z,1.97
2023-02-26T14:29:17.872Z,2.10
2023-02-26T14:32:14.886Z,2.43
2023-02-26T14:35:07.375Z,2.10
2023-02-26T14:37:59.758Z,2.23
2023-02-26T14:40:51.796Z,2.67
2023-02-26T14:43:41.711Z,2.37
2023-02-26T14:46:30.732Z,2.77
2023-02-26T14:49:25.230Z,3.90
2023-02-26T14:52:38.089Z,2.00
2023-02-26T14:55:44.581Z,2.23
2023-02-26T14:58:56.709Z,1.90
2023-02-26T15:01:48.926Z,2.07
2023-02-26T15:04:57.415Z,2.10
2023-02-26T15:07:55.451Z,1.97
2023-02-26T15:10:54.106Z,2.07
2023-02-26T15:14:01.257Z,2.70
2023-02-26T15:16:55.694Z,2.23
2023-02-26T15:19:57.139Z,2.17
2023-02-26T15:22:57.208Z,2.00
2023-02-26T15:25:48.259Z,1.90
2023-02-26T15:28:39.188Z,2.60
2023-02-26T15:31:35.703Z,2.07
2023-02-26T15:34:24.719Z,2.20
2023-02-26T15:37:20.990Z,2.30
2023-02-26T15:40:11.181Z,2.00
2023-02-26T15:43:00.381Z,2.20
2023-02-26T15:45:49.639Z,1.80
2023-02-26T15:48:42.249Z,1.93
2023-02-26T15:51:31.142Z,2.50
2023-02-26T15:54:21.809Z,2.20
2023-02-26T15:57:11.066Z,2.30
2023-02-26T16:00:08.242Z,3.57
2023-02-26T16:02:58.740Z,2.20
2023-02-26T16:05:49.793Z,2.83
2023-02-26T16:08:38.957Z,2.50
2023-02-26T16:11:29.859Z,2.90
2023-02-26T16:14:22.232Z,2.40
2023-02-26T16:17:14.123Z,2.43
2023-02-26T16:20:05.581Z,2.80
2023-02-26T16:22:58.572Z,2.60
2023-02-26T16:25:52.226Z,2.10
2023-02-26T16:28:45.710Z,2.73
2023-02-26T16:31:36.947Z,2.70
2023-02-26T16:34:34.966Z,3.07
2023-02-26T16:37:28.722Z,3.23
2023-02-26T16:40:21.773Z,2.40
2023-02-26T16:43:35.497Z,1.97
2023-02-26T16:46:38.912Z,2.90
2023-02-26T16:49:30.401Z,3.50
2023-02-26T16:52:21.321Z,2.53
2023-02-26T16:55:18.303Z,2.27
2023-02-26T16:58:11.952Z,2.20
2023-02-26T17:01:08.572Z,2.30
2023-02-26T17:04:01.444Z,2.00
2023-02-26T17:06:50.120Z,2.10
2023-02-26T17:09:40.273Z,2.10
2023-02-26T17:12:44.741Z,2.40
2023-02-26T17:15:36.919Z,3.67
2023-02-26T17:18:25.527Z,3.23
2023-02-26T17:21:14.092Z,2.57
2023-02-26T17:24:02.821Z,2.80
2023-02-26T17:26:52.387Z,2.43
2023-02-26T17:29:43.260Z,2.30
2023-02-26T17:32:35.136Z,2.30
2023-02-26T17:35:23.855Z,2.37
2023-02-26T17:38:13.432Z,2.23
2023-02-26T17:41:02.205Z,2.43
2023-02-26T17:43:50.774Z,2.77
2023-02-26T17:46:39.376Z,2.33
2023-02-26T17:49:29.340Z,3.57
2023-02-26T17:52:18.330Z,2.60
2023-02-26T17:55:07.667Z,2.20
2023-02-26T17:57:56.865Z,2.00
2023-02-26T18:00:49.726Z,2.27
2023-02-26T18:03:39.891Z,1.90
2023-02-26T18:06:32.034Z,2.63
2023-02-26T18:09:20.549Z,1.80
2023-02-26T18:12:12.318Z,1.93
2023-02-26T18:15:00.863Z,2.20
2023-02-26T18:17:49.969Z,2.20
2023-02-26T18:20:38.569Z,2.53
2023-02-26T18:23:28.463Z,2.63
2023-02-26T18:26:18.418Z,2.00
2023-02-26T18:29:06.918Z,2.07
2023-02-26T18:31:55.712Z,2.80
2023-02-26T18:34:44.806Z,2.20
2023-02-26T18:37:34.781Z,2.30
2023-02-26T18:40:28.079Z,2.40
2023-02-26T18:43:16.912Z,2.53
2023-02-26T18:46:05.777Z,2.93
2023-02-26T18:48:54.348Z,2.20
2023-02-26T18:51:42.888Z,2.80
2023-02-26T18:54:31.420Z,1.90
2023-02-26T18:57:21.349Z,2.23
2023-02-26T19:00:13.867Z,2.10
2023-02-26T19:03:02.427Z,2.30
2023-02-26T19:05:57.682Z,2.80
2023-02-26T19:08:46.342Z,2.80
2023-02-26T19:11:35.584Z,2.90
2023-02-26T19:14:26.055Z,3.13
2023-02-26T19:17:14.677Z,2.87
2023-02-26T19:20:03.297Z,2.97
2023-02-26T19:22:51.818Z,3.20
2023-02-26T19:25:42.623Z,2.80
2023-02-26T19:28:32.333Z,2.60
2023-02-26T19:31:22.332Z,2.30
2023-02-26T19:34:11.402Z,2.47
2023-02-26T19:37:00.166Z,3.53
2023-02-26T19:39:48.718Z,3.97
2023-02-26T19:42:37.490Z,3.73
2023-02-26T19:45:27.780Z,2.33
2023-02-26T19:48:17.749Z,2.20
2023-02-26T19:51:06.847Z,2.10
2023-02-26T19:53:55.379Z,2.30
2023-02-26T19:56:44.552Z,2.70
2023-02-26T19:59:33.375Z,2.60
2023-02-26T20:02:22.159Z,2.97
2023-02-26T20:05:16.894Z,2.27
2023-02-26T20:08:06.009Z,3.40
2023-02-26T20:10:56.242Z,2.60
2023-02-26T20:13:44.852Z,2.30
2023-02-26T20:16:33.407Z,2.17
2023-02-26T20:19:21.955Z,2.70
2023-02-26T20:22:11.888Z,2.83
2023-02-26T20:25:00.354Z,3.20
2023-02-26T20:27:48.829Z,2.60
2023-02-26T20:30:37.364Z,2.83
2023-02-26T20:33:26.150Z,3.17
2023-02-26T20:36:14.747Z,3.00
2023-02-26T20:39:04.618Z,2.67
2023-02-26T20:41:53.110Z,2.60
2023-02-26T20:44:41.618Z,2.73
2023-02-26T20:47:30.110Z,3.43
2023-02-26T20:50:18.966Z,2.17
2023-02-26T20:53:08.245Z,2.20
2023-02-26T20:55:58.167Z,2.93
2023-02-26T20:58:47.522Z,3.73
2023-02-26T21:01:36.389Z,2.57
2023-02-26T21:04:25.293Z,2.20
2023-02-26T21:07:21.492Z,2.40
2023-02-26T21:10:12.911Z,3.60
2023-02-26T21:13:02.876Z,4.37
2023-02-26T21:15:51.351Z,7.77
2023-02-26T21:18:40.304Z,2.80
2023-02-26T21:21:29.151Z,2.63
2023-02-26T21:24:17.745Z,8.23
2023-02-26T21:27:06.238Z,3.30
2023-02-26T21:29:56.116Z,2.10
2023-02-26T21:32:44.818Z,2.70
2023-02-26T21:35:33.491Z,2.27
2023-02-26T21:38:22.241Z,2.50
2023-02-26T21:41:10.814Z,2.00
2023-02-26T21:43:59.341Z,2.60
2023-02-26T21:46:49.394Z,2.60
2023-02-26T21:49:38.061Z,2.30
2023-02-26T21:52:30.401Z,2.83
2023-02-26T21:55:18.993Z,2.40
2023-02-26T21:58:08.001Z,2.33
2023-02-26T22:00:59.106Z,2.20
2023-02-26T22:03:48.971Z,2.83
2023-02-26T22:06:37.511Z,2.10
2023-02-26T22:09:26.098Z,2.80
2023-02-26T22:12:14.588Z,2.13
2023-02-26T22:15:03.358Z,2.53
2023-02-26T22:17:51.879Z,2.57
2023-02-26T22:20:42.121Z,3.23
2023-02-26T22:23:30.626Z,3.20
2023-02-26T22:26:19.470Z,2.67
2023-02-26T22:29:07.999Z,2.27
2023-02-26T22:31:56.760Z,2.30
2023-02-26T22:34:46.214Z,2.60
2023-02-26T22:37:36.112Z,2.67
2023-02-26T22:40:26.209Z,2.47
2023-02-26T22:43:14.881Z,2.23
2023-02-26T22:46:03.445Z,3.20
2023-02-26T22:48:52.052Z,2.70
2023-02-26T22:51:40.595Z,2.63
2023-02-26T22:54:30.669Z,2.20
2023-02-26T22:57:19.185Z,2.57
2023-02-26T23:00:11.405Z,2.30
2023-02-26T23:03:00.253Z,2.80
2023-02-26T23:05:48.696Z,2.30
2023-02-26T23:08:37.227Z,2.90
2023-02-26T23:11:27.362Z,2.80
2023-02-26T23:14:16.076Z,2.50
2023-02-26T23:17:05.084Z,2.57
2023-02-26T23:19:53.814Z,2.60
2023-02-26T23:22:43.669Z,2.87
2023-02-26T23:25:32.341Z,2.40
2023-02-26T23:28:24.255Z,2.47
2023-02-26T23:31:13.971Z,3.07
2023-02-26T23:34:04.600Z,2.63
2023-02-26T23:36:53.117Z,2.67
2023-02-26T23:39:41.614Z,2.90
2023-02-26T23:42:30.086Z,3.00
2023-02-26T23:45:20.060Z,2.90
2023-02-26T23:48:08.690Z,2.63
2023-02-26T23:50:57.234Z,2.93
2023-02-26T23:53:45.784Z,3.27
2023-02-26T23:56:34.318Z,2.73
2023-02-26T23:59:22.947Z,2.90
